Terminal Aerodrome Forecast
Issued by NWS

Home | Current Version | Previous Version | Text Only | Print | Product List | Glossary On
Versions: 1 2 3 4 5 6 7 8 9 10 11 12 13 14
000
FTUS46 KSEW 230500
TAFBLI
TAF
KBLI 230520Z 2306/2406 15007KT P6SM VCSH SCT030 OVC050
     FM231200 16011KT P6SM VCSH SCT030 BKN050
     FM232100 16008KT P6SM BKN050
     FM240300 16008KT P6SM -RA OVC030=

USA.gov is the U.S. government's official web portal to all federal, state and local government web resources and services.